Sanibel, FL

4:30 PM EDT on August 26, 2016 (GMT -0400)
Rabbit Road | | Change Station

Elev 7 ft 26.44 °N, 82.11 °W | Updated 4 seconds ago

Overcast
Overcast
91.8 °F
Feels Like 106 °F
N
4.9
Wind Variable Wind from North
Gusts 7.4 mph

Today
High -- | Low -- °F
--% Chance of Precip.
Yesterday
High -- | Low -- °F
Precip. -- in
Pressure 29.87 in
Visibility 10.0 miles
Clouds Few 4500 ft
Scattered Clouds 5000 ft
Heat Index 106 °F
Dew Point 77 °F
Humidity 62%
Rainfall 0.00 in
Snow Depth Not available.
7:05 AM 7:53 PM
Waning Crescent, 31% visible
SPECI KFMY 262021Z 07005KT 10SM TS FEW045 SCT050 33/23 A2987 RMK AO2 LTG DSNT SE AND W AND NW RAB01E19 TSB15 P0000 T03330233
Pressure 29.87 in
Visibility 10.0 miles
Clouds Few 4500 ft
Scattered Clouds 5000 ft
Heat Index 106 °F
Dew Point 77 °F
Humidity 62%
Rainfall 0.00 in
Snow Depth Not available.
7:05 AM 7:53 PM
Waning Crescent, 31% visible
SPECI KFMY 262021Z 07005KT 10SM TS FEW045 SCT050 33/23 A2987 RMK AO2 LTG DSNT SE AND W AND NW RAB01E19 TSB15 P0000 T03330233

10-Day Weather Forecast

Almanac

Astronomy

Aug. 26, 2016 Rise Set
Actual Time
Civil Twilight
Nautical Twilight
Astronomical Twilight
Moon
Length of Visible Light
Length of Day
Tomorrow will be .
, % of the Moon is Illuminated

Today's Extremes

State Highs State Lows

Community

WunderPhotos

Upload Photos

1,935,192 photos uploaded!

WunderBlog® & News

Nearby

Air Quality

  Air Quality AQ Index Pollutant
Not available.

Snow Depth

Station Depth Elevation

Earthquake Activity

City Distance Mag. Time & Date
Minimum magnitude displayed is 2.5.

Coastal Water Temperatures

Place Temperature

Stations

Nearby Weather Stations

Station Location Temp. Windchill Dew Point Humidity Wind Precip. Elev Updated Type
                   

Watches & Warnings

There are currently no watches in effect.